Accueil
METAR-TAF:

METAR-TAF

Aéroports :

Aéroport international de Palanga

Palanga, Lituanie

latitude: 55-55-12N, longitude: 021-03E, altitude: 10 m

Observation

Le bulletin a été fait il y a 31 minutes, à 08:50 UTC
Vent 4 kt de direction variable
Température 18°C
Humidité 83%
Pression 1014 hPa
Visibilité 10 km ou plus
Nuages fragmentés à une hauteur de 800 ft

METAR: EYPA 170850Z VRB04KT 9999 BKN008 18/15 Q1014

Heure: 12:21 (09:21 UTC)

Prévision

Le bulletin a été fait il y a 25 minutes, à 08:56 UTC
Prévision valable du 17 à 08 UTC au 18 à 06 UTC
Vent 5 kt de direction variable
Visibilité: 6000 m
Nuages fragmentés à une hauteur de 500 ft
Evoluant progressivement
du 17 à 11 UTC au 17 à 13 UTC
Nuages fragmentés à une hauteur de 1500 ft
Evoluant progressivement
du 17 à 16 UTC au 17 à 18 UTC
Nuages épars à une hauteur de 3000 ft

TAF: EYPA 170856Z 1708/1806 VRB05KT 6000 BKN005 BECMG 1711/1713 BKN015 BECMG 1716/1718 SCT030

Observations et prévisions météorologiques de plus de 4000 aéroports (messages METAR et TAF).

Les stations disponibles sont représentées par des disques jaunes et rouges sur la carte.

Passer la souris dessus pour voir le nom de la station.

Cliquer dessus pour voir les observations et prévisions météorologiques.

Pour changer de carte: cliquez sur les boutons verts avec une croix noire pour zoomer, sur le bouton vert avec un tiret pour effectuer un zoom arrière, ou sur les flèches vertes pour les cartes adjacentes.


METAR-TAF: